Historyczne dane pomiarowe

Dodano dane terminowe – wersja testowa.

Dane z okresu 1951-2019

Wersja bazy: 1.34 [2019-03-16, lista zmian], aktualizacja planowana na 2019-04-15

Dane meteo z obszaru Polski uzyskane na podstawie danych udostępnionych przez Instytut Meteorologii i Gospodarki Wodnej – Państwowy Instytut Badawczy.

 

Wybierz Datę:    

       

TemperaturaWilgotnośćWiatrCiśnienieOpadyŚniegCzas trwania zjawisk
 Stacja t tx tn tng RH VA  wxwx mslp ppp RRR   cm mm wxwxwxwxwxwxwx
1987-08-14 12.5 17.0 6.9--- 6.7 3.7---- 6.9------------
1987-08-13 13.4 18.5 6.3--- 3.0 1.3---- 0.0------------
1987-08-12 10.9 16.7 6.4--- 6.3 2.0---- 0.0------------
1987-08-11 12.2 16.2 9.6--- 6.7 4.7---- 0.0------------
1987-08-10 14.1 17.5 12.4--- 5.3 3.3---- 0.0------------
1987-08-09 16.4 22.0 10.5--- 5.3 2.7---- 1.4------------
1987-08-08 13.3 20.0 7.2--- 2.3 2.7---- 0.0------------
1987-08-07 9.6 15.0 6.0--- 5.7 2.3---- 7.0------------
1987-08-06 9.9 14.8 8.0--- 3.7 3.0---- 0.5------------
1987-08-05 11.3 16.5 7.6--- 4.7 2.0---- 3.5------------
1987-08-04 14.6 17.2 13.0--- 6.3 2.7---- 5.4------------
1987-08-03 13.5 18.5 9.0--- 5.3 1.3---- 0.0------------
1987-08-02 13.1 14.8 10.8--- 6.3 1.3---- 7.1------------
1987-08-01 14.2 19.2 10.0--- 8.0 4.3---- 1.0------------
1987-07-31 14.6 19.5 13.0--- 6.3 3.0---- 2.9------------
1987-07-30 17.6 23.0 10.8--- 4.0 2.7---- 6.5------------
1987-07-29 13.9 18.0 10.0--- 5.3 2.3---- 0.0------------
1987-07-28 12.4 14.8 11.2--- 7.3 3.7---- 2.3------------
1987-07-27 11.7 16.0 7.0--- 5.7 4.7---- 1.0------------
1987-07-26 11.8 16.2 10.2--- 6.3 1.3---- 5.7------------
1987-07-25 18.2 22.8 14.0--- 6.3 1.0---- 5.8------------
1987-07-24 20.0 25.6 16.0--- 6.3 2.0---- 2.2------------
1987-07-23 19.6 25.4 11.0--- 2.7 3.0---- 0.4------------
1987-07-22 18.0 22.2 15.4--- 4.3 2.0---- 0.0------------
1987-07-21 19.0 23.5 10.8--- 4.7 1.7---- 61.0------------
1987-07-20 18.2 21.3 16.0--- 5.3 2.0---- 0.0------------
1987-07-19 20.3 24.6 18.5--- 4.0 2.3---- 5.0------------
1987-07-18 22.8 28.0 16.6--- 1.3 1.3---- 0.0------------
1987-07-17 20.6 28.0 15.0--- 7.3 4.0---- 6.4------------
1987-07-16 19.7 27.0 11.0--- 1.7 1.3---- 3.4------------
1987-07-15 16.5 22.2 8.5--- 0.3 3.3---- 0.0------------
1987-07-14 16.0 20.1 9.8--- 1.3 1.0---- 0.0------------
1987-07-13 18.1 21.5 13.6--- 2.0 1.7---- 0.0------------
1987-07-12 19.3 26.7 14.9--- 4.7 5.0---- 1.0------------
1987-07-11 16.6 23.1 9.2--- 2.3 5.7---- 0.0------------
1987-07-10 13.3 18.0 11.0--- 4.3 3.3---- 0.0------------
1987-07-09 16.5 21.1 13.1--- 8.0 1.0---- 9.9------------
1987-07-08 19.8 27.3 11.5--- 2.0 3.7---- 0.0------------
1987-07-07 18.9 26.0 10.1--- 0.0 1.3---- 0.0------------
1987-07-06 17.8 23.8 10.2--- 1.3 1.0---- 0.0------------
1987-07-05 15.0 19.5 11.0--- 5.3 3.7---- 0.0------------
1987-07-04 18.1 22.6 12.2--- 3.0 3.7---- 0.0------------
1987-07-03 17.8 21.5 14.5--- 8.0 1.0---- 0.0------------
1987-07-02 16.7 23.0 15.0--- 8.0 2.7---- 0.0------------
1987-07-01 23.3 28.7 17.5--- 0.7 3.0---- 0.0------------
1987-06-30 23.2 28.5 15.0--- 0.0 2.0---- 0.0------------
1987-06-29 20.8 26.0 14.4--- 3.0 1.0---- 0.0------------
1987-06-28 18.0 23.5 11.0--- 6.0 3.0---- 0.0------------
1987-06-27 16.2 19.5 14.1--- 8.0 3.0---- 0.0------------
1987-06-26 16.3 22.5 8.0--- 6.3 4.0---- 9.3------------
1987-06-25 14.1 17.0 12.5--- 5.7 2.7---- 0.0------------
1987-06-24 15.4 20.4 11.0--- 4.0 2.3---- 0.3------------
1987-06-23 15.2 20.0 11.6--- 7.0 1.3---- 2.0------------
1987-06-22 15.2 21.5 10.3--- 6.7 3.3---- 26.0------------
1987-06-21 17.4 23.0 9.0--- 3.3 2.0---- 0.0------------
1987-06-20 14.8 20.5 7.2--- 5.3 2.7---- 0.0------------
1987-06-19 12.4 17.0 7.1--- 4.3 3.7---- 0.0------------
1987-06-18 9.8 13.0 6.0--- 7.7 3.3---- 7.2------------
1987-06-17 11.4 15.0 7.6--- 4.0 2.7---- 0.0------------
1987-06-16 12.8 21.5 10.0--- 7.0 4.0---- 1.7------------
512.2 ms

 

Źródłem pochodzenia danych jest Instytut Meteorologii i Gospodarki Wodnej – Państwowy Instytut Badawczy. Dane Instytutu Meteorologii i Gospodarki Wodnej – Państwowego Instytutu Badawczego zostały przetworzone.

Dane źródłowe można odnaleźć na stronie https://dane.imgw.pl